Skip to main content

Ponte de Lima

ID 1210615 · 41.7501, -8.5667 map

Latest reading · 2026-05-09 19:00 (Europe/Lisbon)

Temperature
14.2 °C
Humidity
92 %
Pressure
Precipitation
2.5 mm
Radiation
465 W/m²
Wind speed
10.8 km/h
Wind direction
S · South

24-hour history

Time (Europe/Lisbon) Temp Humidity Pressure Rain Wind Dir
2026-05-09 19:00 14.2 °C 92 % 2.5 mm 10.8 km/h S
2026-05-09 18:00 15.8 °C 81 % 4.8 mm 9.0 km/h SE
2026-05-09 17:00 15.2 °C 88 % 0.0 mm 6.5 km/h E
2026-05-09 16:00 15.8 °C 86 % 0.1 mm 2.9 km/h N
2026-05-09 15:00 17.1 °C 81 % 0.1 mm 4.7 km/h SW
2026-05-09 14:00 14.8 °C 95 % 0.0 mm 6.1 km/h NW
2026-05-09 13:00 13.0 °C 96 % 5.4 mm 2.2 km/h E
2026-05-09 12:00 14.9 °C 83 % 1.0 mm 4.7 km/h W
2026-05-09 11:00 17.2 °C 71 % 0.0 mm 9.4 km/h E
2026-05-09 10:00 15.3 °C 84 % 0.0 mm 4.7 km/h NW
2026-05-09 09:00 13.9 °C 92 % 0.0 mm 1.1 km/h NE
2026-05-09 08:00 11.5 °C 98 % 0.0 mm 1.1 km/h SE
2026-05-09 07:00 10.7 °C 98 % 0.0 mm 2.5 km/h SE
2026-05-09 06:00 11.0 °C 97 % 0.0 mm 3.6 km/h SE
2026-05-09 05:00 11.9 °C 97 % 0.0 mm 5.0 km/h S
2026-05-09 04:00 12.6 °C 93 % 0.0 mm 5.4 km/h S
2026-05-09 03:00 13.0 °C 91 % 0.5 mm 6.1 km/h SE
2026-05-09 02:00 13.9 °C 79 % 0.1 mm 3.6 km/h SE
2026-05-09 01:00 15.1 °C 67 % 0.0 mm 4.0 km/h N
2026-05-09 00:00 14.9 °C 68 % 0.0 mm 6.5 km/h NE
2026-05-08 23:00 13.1 °C 81 % 0.0 mm 5.8 km/h E
2026-05-08 22:00 12.6 °C 87 % 0.0 mm 1.8 km/h NW
2026-05-08 21:00 13.5 °C 82 % 0.0 mm 2.2 km/h SE
2026-05-08 20:00 17.5 °C 61 % 0.0 mm 4.7 km/h SE